createdAt,value
2023-02-14T00:01:53.024Z,1.20
2023-02-14T00:04:23.675Z,1.18
2023-02-14T00:06:51.338Z,1.16
2023-02-14T00:09:20.808Z,1.14
2023-02-14T00:11:48.670Z,1.11
2023-02-14T00:14:35.237Z,1.08
2023-02-14T00:17:02.901Z,1.05
2023-02-14T00:19:34.633Z,1.02
2023-02-14T00:22:02.394Z,0.98
2023-02-14T00:24:30.256Z,0.96
2023-02-14T00:26:58.699Z,0.93
2023-02-14T00:29:28.836Z,0.91
2023-02-14T00:31:56.754Z,0.89
2023-02-14T00:34:25.984Z,0.87
2023-02-14T00:36:55.660Z,0.86
2023-02-14T00:39:25.036Z,0.81
2023-02-14T00:41:52.857Z,0.78
2023-02-14T00:44:20.538Z,0.76
2023-02-14T00:46:48.991Z,0.74
2023-02-14T00:49:17.618Z,0.72
2023-02-14T00:51:46.242Z,0.70
2023-02-14T00:54:15.515Z,0.68
2023-02-14T00:56:43.168Z,0.65
2023-02-14T00:59:11.101Z,0.62
2023-02-14T01:01:38.850Z,0.59
2023-02-14T01:04:07.664Z,0.56
2023-02-14T01:06:36.184Z,0.53
2023-02-14T01:09:04.838Z,0.51
2023-02-14T01:11:35.273Z,0.48
2023-02-14T01:14:03.106Z,0.45
2023-02-14T01:16:31.262Z,0.42
2023-02-14T01:19:01.641Z,0.41
2023-02-14T01:21:32.855Z,0.37
2023-02-14T01:24:04.173Z,0.36
2023-02-14T01:26:32.581Z,0.30
2023-02-14T01:29:04.085Z,0.31
2023-02-14T01:31:33.397Z,0.29
2023-02-14T01:34:02.555Z,0.28
2023-02-14T01:36:32.606Z,0.29
2023-02-14T01:39:04.393Z,0.28
2023-02-14T01:41:37.781Z,0.25
2023-02-14T01:44:09.662Z,0.23
2023-02-14T01:46:39.603Z,0.20
2023-02-14T01:49:14.203Z,0.19
2023-02-14T01:51:46.668Z,0.16
2023-02-14T01:54:16.686Z,0.14
2023-02-14T01:56:49.357Z,0.12
2023-02-14T01:59:22.664Z,0.10
2023-02-14T02:01:56.664Z,0.09
2023-02-14T02:04:28.251Z,0.08
2023-02-14T02:07:00.701Z,0.07
2023-02-14T02:09:38.333Z,0.04
2023-02-14T02:12:06.018Z,0.03
2023-02-14T02:14:36.067Z,0.01
2023-02-14T02:17:23.644Z,-0.02
2023-02-14T02:20:27.028Z,-0.02
2023-02-14T02:23:31.652Z,-0.05
2023-02-14T02:26:37.945Z,-0.07
2023-02-14T02:30:13.531Z,-0.08
2023-02-14T02:33:03.540Z,-0.08
2023-02-14T02:35:53.434Z,-0.07
2023-02-14T02:38:45.066Z,-0.07
2023-02-14T02:41:28.849Z,-0.09
2023-02-14T02:44:10.332Z,-0.09
2023-02-14T02:46:50.707Z,-0.09
2023-02-14T02:49:49.375Z,-0.11
2023-02-14T02:52:41.575Z,-0.13
2023-02-14T02:55:14.700Z,-0.16
2023-02-14T02:57:48.592Z,-0.15
2023-02-14T03:00:19.676Z,-0.14
2023-02-14T03:03:09.451Z,-0.14
2023-02-14T03:05:38.675Z,-0.13
2023-02-14T03:08:10.355Z,-0.15
2023-02-14T03:10:40.659Z,-0.14
2023-02-14T03:13:26.612Z,-0.15
2023-02-14T03:16:09.632Z,-0.17
2023-02-14T03:21:48.152Z,-0.18
2023-02-14T03:24:28.622Z,-0.18
2023-02-14T03:27:04.760Z,-0.20
2023-02-14T03:29:49.634Z,-0.21
2023-02-14T03:32:28.765Z,-0.22
2023-02-14T03:35:05.560Z,-0.24
2023-02-14T03:37:46.353Z,-0.27
2023-02-14T03:40:22.627Z,-0.28
2023-02-14T03:42:55.774Z,-0.28
2023-02-14T03:45:30.829Z,-0.27
2023-02-14T03:48:02.917Z,-0.25
2023-02-14T03:50:33.795Z,-0.27
2023-02-14T03:53:04.591Z,-0.28
2023-02-14T03:55:40.621Z,-0.30
2023-02-14T03:58:16.360Z,-0.32
2023-02-14T04:00:49.691Z,-0.33
2023-02-14T04:03:22.336Z,-0.34
2023-02-14T04:05:52.678Z,-0.36
2023-02-14T04:08:25.121Z,-0.38
2023-02-14T04:10:58.954Z,-0.39
2023-02-14T04:13:27.251Z,-0.39
2023-02-14T04:15:55.540Z,-0.39
2023-02-14T04:18:43.597Z,-0.39
2023-02-14T04:21:12.094Z,-0.40
2023-02-14T04:23:41.567Z,-0.41
2023-02-14T04:26:12.728Z,-0.43
2023-02-14T04:28:40.998Z,-0.45
2023-02-14T04:31:12.796Z,-0.47
2023-02-14T04:33:41.603Z,-0.49
2023-02-14T04:36:09.762Z,-0.50
2023-02-14T04:38:37.466Z,-0.51
2023-02-14T04:41:05.481Z,-0.53
2023-02-14T04:43:36.600Z,-0.54
2023-02-14T04:46:04.659Z,-0.55
2023-02-14T04:48:33.034Z,-0.57
2023-02-14T04:51:01.870Z,-0.58
2023-02-14T04:53:33.610Z,-0.57
2023-02-14T04:56:02.086Z,-0.57
2023-02-14T04:58:31.806Z,-0.59
2023-02-14T05:01:02.107Z,-0.59
2023-02-14T05:03:29.954Z,-0.60
2023-02-14T05:05:57.587Z,-0.62
2023-02-14T05:08:25.313Z,-0.65
2023-02-14T05:10:55.868Z,-0.66
2023-02-14T05:13:24.087Z,-0.68
2023-02-14T05:15:51.691Z,-0.68
2023-02-14T05:18:21.189Z,-0.70
2023-02-14T05:20:50.584Z,-0.70
2023-02-14T05:23:19.696Z,-0.71
2023-02-14T05:25:49.027Z,-0.72
2023-02-14T05:28:16.850Z,-0.72
2023-02-14T05:30:45.354Z,-0.73
2023-02-14T05:33:18.584Z,-0.74
2023-02-14T05:35:47.618Z,-0.74
2023-02-14T05:38:15.713Z,-0.75
2023-02-14T05:40:44.331Z,-0.76
2023-02-14T05:43:12.711Z,-0.77
2023-02-14T05:45:40.296Z,-0.77
2023-02-14T05:48:08.679Z,-0.77
2023-02-14T05:50:36.360Z,-0.79
2023-02-14T05:53:05.607Z,-0.81
2023-02-14T05:55:35.223Z,-0.82
2023-02-14T05:58:03.256Z,-0.83
2023-02-14T06:00:33.580Z,-0.85
2023-02-14T06:03:02.024Z,-0.85
2023-02-14T06:05:29.716Z,-0.83
2023-02-14T06:07:57.300Z,-0.83
2023-02-14T06:10:27.739Z,-0.83
2023-02-14T06:13:00.150Z,-0.85
2023-02-14T06:15:28.228Z,-0.88
2023-02-14T06:17:58.706Z,-0.88
2023-02-14T06:20:27.447Z,-0.90
2023-02-14T06:22:55.611Z,-0.91
2023-02-14T06:25:24.180Z,-0.90
2023-02-14T06:27:57.077Z,-0.90
2023-02-14T06:30:24.948Z,-0.90
2023-02-14T06:32:55.916Z,-0.89
2023-02-14T06:35:23.938Z,-0.88
2023-02-14T06:37:51.629Z,-0.89
2023-02-14T06:40:21.105Z,-0.89
2023-02-14T06:42:49.273Z,-0.88
2023-02-14T06:45:18.397Z,-0.88
2023-02-14T06:47:51.267Z,-0.88
2023-02-14T06:50:22.754Z,-0.88
2023-02-14T06:52:54.958Z,-0.88
2023-02-14T06:55:22.638Z,-0.90
2023-02-14T06:57:52.162Z,-0.89
2023-02-14T07:00:22.480Z,-0.89
2023-02-14T07:02:50.746Z,-0.90
2023-02-14T07:05:19.303Z,-0.90
2023-02-14T07:07:47.453Z,-0.92
2023-02-14T07:10:17.380Z,-0.91
2023-02-14T07:12:45.593Z,-0.90
2023-02-14T07:15:15.723Z,-0.88
2023-02-14T07:17:48.713Z,-0.87
2023-02-14T07:20:18.263Z,-0.85
2023-02-14T07:22:46.274Z,-0.83
2023-02-14T07:25:14.249Z,-0.77
2023-02-14T07:27:41.934Z,-0.73
2023-02-14T07:30:13.596Z,-0.65
2023-02-14T07:32:43.621Z,-0.56
2023-02-14T07:35:14.397Z,-0.46
2023-02-14T07:37:43.041Z,-0.43
2023-02-14T07:40:14.963Z,-0.36
2023-02-14T07:42:43.608Z,-0.22
2023-02-14T07:45:21.252Z,-0.10
2023-02-14T07:47:52.628Z,-0.03
2023-02-14T07:50:20.907Z,0.04
2023-02-14T07:52:49.427Z,0.07
2023-02-14T07:55:17.370Z,0.09
2023-02-14T07:58:09.580Z,0.12
2023-02-14T08:00:38.142Z,0.13
2023-02-14T08:03:07.310Z,0.16
2023-02-14T08:05:39.699Z,0.19
2023-02-14T08:08:08.304Z,0.28
2023-02-14T08:10:36.126Z,0.36
2023-02-14T08:13:03.899Z,0.43
2023-02-14T08:15:51.100Z,0.48
2023-02-14T08:18:22.996Z,0.54
2023-02-14T08:20:51.796Z,0.58
2023-02-14T08:23:20.816Z,0.62
2023-02-14T08:25:49.826Z,0.64
2023-02-14T08:28:17.983Z,0.67
2023-02-14T08:30:47.563Z,0.69
2023-02-14T08:33:15.222Z,0.71
2023-02-14T08:35:47.053Z,0.75
2023-02-14T08:38:17.981Z,0.84
2023-02-14T08:40:46.042Z,0.98
2023-02-14T08:43:14.715Z,1.09
2023-02-14T08:45:43.601Z,1.15
2023-02-14T08:48:13.686Z,1.21
2023-02-14T08:50:42.176Z,1.34
2023-02-14T08:53:13.644Z,1.47
2023-02-14T08:55:41.580Z,1.54
2023-02-14T08:58:10.156Z,1.59
2023-02-14T09:00:38.655Z,1.64
2023-02-14T09:03:06.391Z,1.68
2023-02-14T09:05:36.606Z,1.73
2023-02-14T09:08:04.666Z,1.82
2023-02-14T09:10:33.680Z,1.94
2023-02-14T09:13:02.643Z,2.15
2023-02-14T09:15:30.361Z,2.45
2023-02-14T09:17:58.068Z,2.68
2023-02-14T09:20:26.071Z,2.89
2023-02-14T09:22:56.524Z,3.07
2023-02-14T09:25:24.307Z,3.27
2023-02-14T09:27:53.514Z,3.49
2023-02-14T09:30:22.216Z,3.65
2023-02-14T09:32:52.440Z,3.84
2023-02-14T09:35:37.932Z,4.01
2023-02-14T09:38:05.701Z,4.17
2023-02-14T09:40:34.580Z,4.33
2023-02-14T09:43:11.793Z,4.44
2023-02-14T09:45:41.031Z,4.61
2023-02-14T09:48:19.579Z,4.72
2023-02-14T09:50:50.741Z,4.81
2023-02-14T09:53:24.561Z,4.95
2023-02-14T09:55:58.152Z,5.05
2023-02-14T09:58:33.306Z,5.15
2023-02-14T10:01:07.780Z,5.27
2023-02-14T10:03:52.589Z,5.44
2023-02-14T10:06:41.609Z,5.71
2023-02-14T10:09:22.888Z,5.79
2023-02-14T10:11:51.601Z,5.93
2023-02-14T10:14:24.296Z,6.07
2023-02-14T10:16:56.752Z,6.28
2023-02-14T10:19:28.369Z,6.34
2023-02-14T10:22:02.661Z,6.49
2023-02-14T10:25:01.101Z,6.59
2023-02-14T10:27:34.712Z,6.78
2023-02-14T10:30:13.717Z,6.94
2023-02-14T10:32:46.794Z,7.09
2023-02-14T10:35:42.798Z,7.22
2023-02-14T10:38:21.505Z,7.31
2023-02-14T10:41:36.433Z,7.42
2023-02-14T10:44:27.608Z,7.53
2023-02-14T10:47:06.745Z,7.67
2023-02-14T10:49:45.637Z,7.80
2023-02-14T10:52:22.913Z,7.85
2023-02-14T10:54:55.322Z,7.98
2023-02-14T10:57:28.828Z,8.13
2023-02-14T11:00:02.064Z,8.16
2023-02-14T11:02:35.254Z,8.24
2023-02-14T11:05:05.624Z,8.26
2023-02-14T11:07:36.634Z,8.32
2023-02-14T11:10:13.696Z,8.46
2023-02-14T11:12:42.473Z,8.53
2023-02-14T11:15:22.883Z,8.51
2023-02-14T11:18:09.841Z,8.58
2023-02-14T11:20:39.201Z,8.56
2023-02-14T11:23:20.621Z,8.64
2023-02-14T11:25:55.476Z,8.70
2023-02-14T11:28:23.667Z,8.72
2023-02-14T11:30:52.887Z,8.77
2023-02-14T11:33:34.631Z,8.90
2023-02-14T11:36:08.672Z,9.02
2023-02-14T11:38:38.382Z,9.12
2023-02-14T11:41:08.662Z,9.17
2023-02-14T11:43:38.298Z,9.22
2023-02-14T11:46:14.668Z,9.22
2023-02-14T11:48:58.015Z,9.19
2023-02-14T11:51:36.592Z,9.26
2023-02-14T11:54:06.497Z,9.28
2023-02-14T11:56:51.096Z,9.47
2023-02-14T11:59:30.720Z,9.55
2023-02-14T12:02:05.164Z,9.58
2023-02-14T12:04:46.322Z,9.52
2023-02-14T12:07:29.024Z,9.53
2023-02-14T12:10:29.708Z,9.55
2023-02-14T12:13:03.410Z,9.64
2023-02-14T12:15:37.801Z,9.66
2023-02-14T12:18:43.852Z,9.67
2023-02-14T12:21:34.676Z,9.65
2023-02-14T12:24:13.612Z,9.71
2023-02-14T12:26:49.709Z,9.78
2023-02-14T12:29:26.132Z,9.83
2023-02-14T12:31:55.005Z,9.83
2023-02-14T12:34:23.056Z,9.87
2023-02-14T12:37:08.644Z,9.88
2023-02-14T12:39:43.200Z,9.89
2023-02-14T12:42:23.133Z,9.92
2023-02-14T12:45:00.110Z,10.05
2023-02-14T12:47:40.937Z,10.19
2023-02-14T12:50:28.267Z,10.24
2023-02-14T12:53:19.662Z,10.24
2023-02-14T12:55:56.297Z,10.27
2023-02-14T12:58:38.031Z,10.34
2023-02-14T13:01:39.055Z,10.43
2023-02-14T13:04:24.506Z,10.53
2023-02-14T13:06:58.695Z,10.66
2023-02-14T13:09:39.594Z,10.73
2023-02-14T13:12:21.274Z,10.78
2023-02-14T13:15:02.650Z,10.74
2023-02-14T13:17:38.674Z,10.77
2023-02-14T13:20:28.952Z,10.85
2023-02-14T13:22:58.548Z,10.79
2023-02-14T13:25:33.769Z,10.78
2023-02-14T13:28:04.638Z,10.94
2023-02-14T13:30:34.672Z,10.96
2023-02-14T13:33:07.196Z,11.00
2023-02-14T13:35:36.130Z,11.01
2023-02-14T13:38:08.356Z,11.02
2023-02-14T13:40:38.527Z,11.08
2023-02-14T13:43:09.684Z,11.06
2023-02-14T13:45:53.854Z,11.06
2023-02-14T13:48:29.272Z,11.11
2023-02-14T13:51:00.915Z,11.12
2023-02-14T13:53:33.598Z,11.08
2023-02-14T13:56:06.273Z,11.06
2023-02-14T13:58:35.167Z,11.05
2023-02-14T14:01:32.624Z,11.04
2023-02-14T14:04:02.339Z,11.04
2023-02-14T14:06:30.697Z,11.04
2023-02-14T14:08:58.522Z,11.07
2023-02-14T14:12:02.404Z,11.12
2023-02-14T14:14:36.606Z,11.18
2023-02-14T14:17:25.808Z,11.25
2023-02-14T14:19:54.185Z,11.28
2023-02-14T14:22:24.578Z,11.31
2023-02-14T14:24:55.765Z,11.31
2023-02-14T14:27:27.684Z,11.35
2023-02-14T14:29:59.981Z,11.31
2023-02-14T14:32:53.018Z,11.31
2023-02-14T14:35:26.596Z,11.32
2023-02-14T14:37:55.820Z,11.29
2023-02-14T14:40:26.101Z,11.27
2023-02-14T14:42:56.543Z,11.24
2023-02-14T14:45:27.533Z,11.22
2023-02-14T14:47:58.519Z,11.20
2023-02-14T14:50:32.628Z,11.21
2023-02-14T14:53:05.133Z,11.23
2023-02-14T14:55:37.628Z,11.31
2023-02-14T14:58:09.616Z,11.32
2023-02-14T15:00:38.933Z,11.32
2023-02-14T15:03:16.631Z,11.37
2023-02-14T15:05:47.645Z,11.36
2023-02-14T15:08:17.953Z,11.35
2023-02-14T15:10:50.647Z,11.35
2023-02-14T15:13:40.465Z,11.32
2023-02-14T15:16:09.621Z,11.29
2023-02-14T15:18:39.068Z,11.23
2023-02-14T15:21:08.673Z,11.20
2023-02-14T15:23:38.606Z,11.18
2023-02-14T15:26:08.448Z,11.15
2023-02-14T15:28:38.488Z,11.10
2023-02-14T15:31:08.673Z,11.07
2023-02-14T15:33:37.128Z,11.00
2023-02-14T15:36:09.637Z,10.96
2023-02-14T15:38:42.699Z,10.91
2023-02-14T15:41:37.653Z,10.87
2023-02-14T15:44:07.629Z,10.81
2023-02-14T15:46:41.455Z,10.77
2023-02-14T15:49:11.299Z,10.72
2023-02-14T15:51:40.425Z,10.67
2023-02-14T15:54:10.778Z,10.62
2023-02-14T15:56:45.639Z,10.57
2023-02-14T15:59:18.133Z,10.52
2023-02-14T16:01:52.529Z,10.46
2023-02-14T16:04:28.136Z,10.40
2023-02-14T16:07:17.017Z,10.35
2023-02-14T16:09:44.679Z,10.25
2023-02-14T16:12:32.227Z,10.17
2023-02-14T16:15:10.747Z,10.11
2023-02-14T16:17:38.457Z,10.06
2023-02-14T16:20:24.052Z,9.98
2023-02-14T16:22:52.071Z,9.92
2023-02-14T16:25:21.683Z,9.84
2023-02-14T16:27:52.673Z,9.77
2023-02-14T16:30:22.387Z,9.69
2023-02-14T16:32:53.780Z,9.63
2023-02-14T16:35:22.705Z,9.55
2023-02-14T16:37:51.821Z,9.47
2023-02-14T16:40:24.622Z,9.41
2023-02-14T16:42:53.150Z,9.32
2023-02-14T16:45:22.115Z,9.23
2023-02-14T16:47:50.608Z,9.14
2023-02-14T16:53:22.614Z,8.97
2023-02-14T16:55:56.766Z,8.86
2023-02-14T16:58:33.961Z,8.76
2023-02-14T17:01:03.530Z,8.68
2023-02-14T17:03:33.640Z,8.59
2023-02-14T17:06:02.540Z,8.50
2023-02-14T17:11:25.945Z,8.32
2023-02-14T17:13:57.614Z,8.24
2023-02-14T17:16:31.133Z,8.15
2023-02-14T17:18:59.488Z,8.06
2023-02-14T17:21:27.181Z,7.96
2023-02-14T17:23:59.548Z,7.87
2023-02-14T17:26:27.099Z,7.78
2023-02-14T17:28:55.638Z,7.69
2023-02-14T17:31:25.746Z,7.62
2023-02-14T17:33:57.795Z,7.53
2023-02-14T17:36:25.407Z,7.45
2023-02-14T17:38:55.225Z,7.39
2023-02-14T17:41:26.718Z,7.31
2023-02-14T17:43:55.453Z,7.23
2023-02-14T17:46:23.182Z,7.14
2023-02-14T17:48:50.859Z,7.07
2023-02-14T17:51:20.735Z,7.00
2023-02-14T17:53:50.348Z,6.92
2023-02-14T17:56:20.615Z,6.86
2023-02-14T17:58:50.571Z,6.78
2023-02-14T18:01:20.835Z,6.72
2023-02-14T18:03:48.751Z,6.65
2023-02-14T18:06:16.591Z,6.57
2023-02-14T18:08:49.285Z,6.51
2023-02-14T18:11:19.290Z,6.45
2023-02-14T18:13:47.782Z,6.37
2023-02-14T18:16:18.873Z,6.31
2023-02-14T18:18:46.747Z,6.24
2023-02-14T18:21:18.794Z,6.18
2023-02-14T18:23:48.017Z,6.11
2023-02-14T18:26:17.991Z,6.05
2023-02-14T18:28:46.695Z,5.98
2023-02-14T18:31:16.679Z,5.93
2023-02-14T18:33:45.241Z,5.85
2023-02-14T18:36:14.561Z,5.79
2023-02-14T18:38:43.800Z,5.71
2023-02-14T18:41:15.127Z,5.66
2023-02-14T18:43:43.654Z,5.58
2023-02-14T18:46:13.440Z,5.51
2023-02-14T18:48:41.610Z,5.46
2023-02-14T18:51:11.038Z,5.40
2023-02-14T18:53:39.746Z,5.34
2023-02-14T18:56:10.836Z,5.28
2023-02-14T18:58:41.445Z,5.22
2023-02-14T19:01:10.078Z,5.18
2023-02-14T19:03:37.732Z,5.12
2023-02-14T19:06:05.757Z,5.06
2023-02-14T19:08:34.375Z,5.00
2023-02-14T19:11:02.304Z,4.94
2023-02-14T19:13:32.147Z,4.87
2023-02-14T19:16:01.756Z,4.81
2023-02-14T19:18:30.138Z,4.77
2023-02-14T19:20:57.697Z,4.73
2023-02-14T19:23:25.313Z,4.68
2023-02-14T19:25:53.546Z,4.64
2023-02-14T19:28:21.472Z,4.61
2023-02-14T19:30:49.222Z,4.54
2023-02-14T19:33:18.268Z,4.51
2023-02-14T19:35:46.622Z,4.46
2023-02-14T19:38:14.217Z,4.41
2023-02-14T19:40:44.942Z,4.37
2023-02-14T19:43:12.716Z,4.32
2023-02-14T19:45:40.322Z,4.26
2023-02-14T19:48:07.939Z,4.21
2023-02-14T19:50:39.743Z,4.17
2023-02-14T19:53:07.453Z,4.12
2023-02-14T19:55:35.064Z,4.07
2023-02-14T19:58:03.200Z,4.02
2023-02-14T20:00:31.027Z,3.97
2023-02-14T20:03:01.458Z,3.95
2023-02-14T20:05:29.732Z,3.90
2023-02-14T20:07:58.984Z,3.86
2023-02-14T20:10:26.931Z,3.83
2023-02-14T20:12:54.563Z,3.78
2023-02-14T20:15:22.177Z,3.73
2023-02-14T20:17:50.608Z,3.70
2023-02-14T20:20:18.387Z,3.67
2023-02-14T20:22:46.181Z,3.62
2023-02-14T20:25:15.653Z,3.58
2023-02-14T20:27:43.351Z,3.56
2023-02-14T20:30:12.148Z,3.53
2023-02-14T20:32:39.876Z,3.49
2023-02-14T20:35:07.915Z,3.44
2023-02-14T20:37:36.257Z,3.43
2023-02-14T20:40:04.360Z,3.39
2023-02-14T20:42:33.590Z,3.36
2023-02-14T20:45:01.323Z,3.33
2023-02-14T20:47:29.622Z,3.30
2023-02-14T20:49:57.199Z,3.28
2023-02-14T20:52:26.874Z,3.23
2023-02-14T20:54:55.204Z,3.21
2023-02-14T20:57:23.439Z,3.18
2023-02-14T20:59:52.476Z,3.13
2023-02-14T21:02:20.573Z,3.08
2023-02-14T21:04:48.247Z,3.06
2023-02-14T21:07:15.898Z,3.02
2023-02-14T21:09:43.867Z,2.92
2023-02-14T21:12:14.016Z,2.89
2023-02-14T21:14:41.653Z,2.85
2023-02-14T21:17:11.622Z,2.83
2023-02-14T21:19:39.218Z,2.82
2023-02-14T21:22:07.724Z,2.76
2023-02-14T21:24:36.602Z,2.70
2023-02-14T21:29:57.678Z,2.61
2023-02-14T21:32:33.627Z,2.57
2023-02-14T21:35:01.195Z,2.54
2023-02-14T21:37:28.805Z,2.49
2023-02-14T21:39:56.514Z,2.46
2023-02-14T21:42:26.282Z,2.41
2023-02-14T21:45:11.637Z,2.39
2023-02-14T21:47:40.706Z,2.35
2023-02-14T21:50:28.690Z,2.32
2023-02-14T21:53:00.394Z,2.27
2023-02-14T21:55:28.180Z,2.23
2023-02-14T21:57:56.705Z,2.19
2023-02-14T22:00:24.631Z,2.15
2023-02-14T22:02:53.821Z,2.12
2023-02-14T22:05:21.896Z,2.07
2023-02-14T22:07:50.759Z,2.03
2023-02-14T22:10:18.496Z,2.00
2023-02-14T22:12:46.057Z,1.97
2023-02-14T22:15:13.824Z,1.93
2023-02-14T22:17:41.457Z,1.91
2023-02-14T22:20:12.172Z,1.87
2023-02-14T22:22:40.223Z,1.84
2023-02-14T22:25:08.144Z,1.80
2023-02-14T22:27:39.084Z,1.76
2023-02-14T22:30:08.328Z,1.70
2023-02-14T22:32:36.717Z,1.68
2023-02-14T22:35:04.367Z,1.64
2023-02-14T22:37:33.643Z,1.62
2023-02-14T22:40:01.297Z,1.60
2023-02-14T22:42:28.894Z,1.57
2023-02-14T22:44:56.540Z,1.54
2023-02-14T22:47:25.700Z,1.51
2023-02-14T22:49:53.366Z,1.49
2023-02-14T22:52:20.972Z,1.46
2023-02-14T22:54:52.544Z,1.44
2023-02-14T22:57:20.825Z,1.42
2023-02-14T22:59:48.461Z,1.39
2023-02-14T23:02:16.112Z,1.37
2023-02-14T23:04:45.636Z,1.35
2023-02-14T23:07:15.495Z,1.32
2023-02-14T23:09:43.135Z,1.29
2023-02-14T23:12:32.313Z,1.25
2023-02-14T23:15:17.820Z,1.21
2023-02-14T23:18:02.897Z,1.19
2023-02-14T23:20:48.620Z,1.15
2023-02-14T23:23:16.209Z,1.11
2023-02-14T23:25:44.104Z,1.10
2023-02-14T23:28:13.161Z,1.05
2023-02-14T23:30:40.993Z,1.04
2023-02-14T23:33:08.596Z,1.02
2023-02-14T23:35:37.184Z,0.98
2023-02-14T23:38:04.853Z,0.95
2023-02-14T23:40:53.220Z,0.92
2023-02-14T23:43:22.752Z,0.88
2023-02-14T23:45:50.457Z,0.84
2023-02-14T23:48:18.060Z,0.80
2023-02-14T23:50:45.717Z,0.82
2023-02-14T23:53:15.204Z,0.80
2023-02-14T23:55:42.886Z,0.77
2023-02-14T23:58:10.508Z,0.74
